Time;durP1;ratioP1;P1;durP2;ratioP2;P2;SDS_P1;SDS_P2;PMS_P1;PMS_P2;Temp;Humidity;BMP_temperature;BMP_pressure;BME280_temperature;BME280_humidity;BME280_pressure;Samples;Min_cycle;Max_cycle;Signal;HPM_P1;HPM_P2
2021/04/02 00:00:15;;;;;;;22.00;8.10;;;8.20;99.90;;;;;;5092024;28;20184;-79
2021/04/02 00:02:41;;;;;;;19.03;7.83;;;8.20;99.90;;;;;;5098181;28;20211;-78
2021/04/02 00:05:07;;;;;;;20.53;8.27;;;8.10;99.90;;;;;;5089862;28;20178;-79
2021/04/02 00:07:33;;;;;;;16.63;7.53;;;8.10;99.90;;;;;;5095396;28;20715;-78
2021/04/02 00:09:58;;;;;;;20.33;8.13;;;8.00;99.90;;;;;;5095012;28;20177;-78
2021/04/02 00:12:24;;;;;;;20.03;7.47;;;7.90;99.90;;;;;;5096336;28;20567;-79
2021/04/02 00:14:49;;;;;;;19.33;8.20;;;7.90;99.90;;;;;;5091248;28;20196;-79
2021/04/02 00:17:15;;;;;;;19.53;8.27;;;7.80;99.90;;;;;;5088390;28;20275;-78
2021/04/02 00:19:41;;;;;;;17.37;9.13;;;7.90;99.90;;;;;;5096131;28;20217;-78
2021/04/02 00:22:06;;;;;;;23.50;8.10;;;7.90;99.90;;;;;;5088510;28;20221;-78
2021/04/02 00:24:32;;;;;;;23.03;8.47;;;7.90;99.90;;;;;;5093872;28;20188;-79
2021/04/02 00:26:58;;;;;;;16.97;7.97;;;7.90;99.90;;;;;;5098763;28;20679;-78
2021/04/02 00:29:23;;;;;;;18.57;8.03;;;7.80;99.90;;;;;;5084630;28;20173;-79
2021/04/02 00:31:49;;;;;;;21.80;8.70;;;7.80;99.90;;;;;;5092704;28;20187;-79
2021/04/02 00:34:15;;;;;;;29.17;8.53;;;7.90;99.90;;;;;;5096129;28;20643;-79
2021/04/02 00:36:40;;;;;;;16.97;7.97;;;7.80;99.90;;;;;;5110555;27;20189;-78
2021/04/02 00:39:06;;;;;;;20.37;8.70;;;7.80;99.90;;;;;;5092050;28;20190;-79
2021/04/02 00:41:32;;;;;;;18.90;7.80;;;7.60;99.90;;;;;;5087155;28;20292;-80
2021/04/02 00:43:58;;;;;;;17.07;7.83;;;7.60;99.90;;;;;;5077632;28;20205;-79
2021/04/02 00:46:24;;;;;;;17.90;8.63;;;7.60;99.90;;;;;;5093894;28;20186;-79
2021/04/02 00:48:50;;;;;;;22.83;8.60;;;7.50;99.90;;;;;;5094040;28;20180;-79
2021/04/02 00:51:26;;;;;;;21.07;8.33;;;7.60;99.90;;;;;;5090376;28;20191;-79
2021/04/02 00:53:52;;;;;;;26.10;8.60;;;7.40;99.90;;;;;;5090781;28;20705;-78
2021/04/02 00:56:19;;;;;;;20.20;8.43;;;7.30;99.90;;;;;;5095895;28;20205;-79
2021/04/02 00:58:46;;;;;;;19.73;8.30;;;7.30;99.90;;;;;;5091059;28;20276;-78
2021/04/02 01:01:13;;;;;;;23.50;8.37;;;7.40;99.90;;;;;;5093553;28;20297;-79
2021/04/02 01:03:40;;;;;;;22.80;9.00;;;7.50;99.90;;;;;;5092586;28;20521;-79
2021/04/02 01:06:15;;;;;;;21.03;9.30;;;7.40;99.90;;;;;;5070197;28;20213;-78
2021/04/02 01:08:42;;;;;;;21.23;8.80;;;7.40;99.90;;;;;;5092977;28;20175;-78
2021/04/02 01:11:12;;;;;;;21.77;8.77;;;7.30;99.90;;;;;;5092756;28;20203;-79
2021/04/02 01:13:47;;;;;;;23.10;8.63;;;7.30;99.90;;;;;;5094680;28;20237;-79
2021/04/02 01:16:34;;;;;;;19.57;8.47;;;7.40;99.90;;;;;;5087481;28;20278;-79
2021/04/02 01:19:15;;;;;;;23.00;9.53;;;7.50;99.90;;;;;;5094952;28;20191;-79
2021/04/02 01:21:57;;;;;;;20.50;9.33;;;7.50;99.90;;;;;;5076708;28;20538;-79
2021/04/02 01:24:23;;;;;;;17.63;8.93;;;7.20;99.90;;;;;;5092740;28;20550;-78
2021/04/02 01:27:02;;;;;;;25.00;9.83;;;7.20;99.90;;;;;;5094932;28;20517;-78
2021/04/02 01:29:42;;;;;;;19.53;9.23;;;7.20;99.90;;;;;;5075469;28;20188;-78
2021/04/02 01:32:14;;;;;;;25.93;9.20;;;7.10;99.90;;;;;;5092735;28;20180;-79
2021/04/02 01:34:44;;;;;;;21.53;9.07;;;7.00;99.90;;;;;;5108836;27;20184;-79
2021/04/02 01:37:35;;;;;;;21.50;9.33;;;7.10;99.90;;;;;;5094255;28;20266;-79
2021/04/02 01:40:05;;;;;;;21.93;9.17;;;7.10;99.90;;;;;;5091185;28;20689;-79
2021/04/02 01:42:33;;;;;;;20.90;9.37;;;7.10;99.90;;;;;;5109022;27;20215;-78
2021/04/02 01:45:03;;;;;;;20.30;9.30;;;7.10;99.90;;;;;;5092782;28;20211;-79
2021/04/02 01:47:29;;;;;;;26.80;9.47;;;7.10;99.90;;;;;;5090937;28;20173;-79
2021/04/02 01:49:57;;;;;;;23.47;9.57;;;6.90;99.90;;;;;;5093992;28;20599;-79
2021/04/02 01:52:24;;;;;;;24.50;10.63;;;7.10;99.90;;;;;;5091698;28;20263;-79
2021/04/02 01:54:52;;;;;;;21.70;10.03;;;7.20;99.90;;;;;;5085734;28;20181;-79
2021/04/02 01:57:19;;;;;;;25.97;10.40;;;7.20;99.90;;;;;;5092141;28;20180;-78
2021/04/02 01:59:49;;;;;;;24.53;10.83;;;7.00;99.90;;;;;;5091722;28;20184;-79
2021/04/02 02:02:18;;;;;;;24.77;10.63;;;7.00;99.90;;;;;;5089709;28;20231;-78
2021/04/02 02:04:46;;;;;;;22.83;10.73;;;7.00;99.90;;;;;;5091585;28;20224;-78
2021/04/02 02:07:14;;;;;;;26.23;9.93;;;7.10;99.90;;;;;;5089045;28;20183;-78
2021/04/02 02:09:52;;;;;;;24.17;10.37;;;7.00;99.90;;;;;;5092732;28;20184;-79
2021/04/02 02:12:28;;;;;;;24.50;10.87;;;7.00;99.90;;;;;;5107697;28;20185;-78
2021/04/02 02:14:58;;;;;;;22.37;10.67;;;7.00;99.90;;;;;;5093117;28;20181;-78
2021/04/02 02:17:36;;;;;;;21.70;10.67;;;6.90;99.90;;;;;;5090146;28;20178;-79
2021/04/02 02:20:07;;;;;;;24.37;11.13;;;6.90;99.90;;;;;;5091312;28;20183;-79
2021/04/02 02:22:35;;;;;;;24.27;11.57;;;6.90;99.90;;;;;;5089267;28;20206;-79
2021/04/02 02:25:10;;;;;;;26.30;11.57;;;6.90;99.90;;;;;;5083750;28;20170;-79
2021/04/02 02:27:42;;;;;;;20.40;10.27;;;6.90;99.90;;;;;;5087830;28;20184;-79
2021/04/02 02:30:14;;;;;;;28.40;11.03;;;6.90;99.90;;;;;;5085566;28;20232;-78
2021/04/02 02:32:41;;;;;;;21.17;10.10;;;6.90;99.90;;;;;;5091946;28;20184;-78
2021/04/02 02:35:08;;;;;;;26.00;10.40;;;6.70;99.90;;;;;;5087463;28;20205;-79
2021/04/02 02:37:36;;;;;;;25.40;10.73;;;6.60;99.90;;;;;;5088048;28;20183;-78
2021/04/02 02:40:14;;;;;;;25.23;11.43;;;6.60;99.90;;;;;;5106660;28;20696;-79
2021/04/02 02:42:41;;;;;;;24.50;10.13;;;6.70;99.90;;;;;;5088861;28;20221;-79
2021/04/02 02:45:11;;;;;;;29.20;11.50;;;6.70;99.90;;;;;;5093611;28;20277;-79
2021/04/02 02:47:37;;;;;;;25.20;11.33;;;6.70;99.90;;;;;;5092114;28;20645;-78
2021/04/02 02:50:06;;;;;;;26.37;11.53;;;6.50;99.90;;;;;;5092409;28;20173;-79
2021/04/02 02:52:34;;;;;;;28.20;11.30;;;6.50;99.90;;;;;;5090270;28;20213;-79
2021/04/02 02:55:03;;;;;;;26.63;12.00;;;6.50;99.90;;;;;;5092102;28;20683;-79
2021/04/02 02:57:29;;;;;;;28.17;11.33;;;6.50;99.90;;;;;;5088206;28;20180;-79
2021/04/02 02:59:58;;;;;;;25.57;12.00;;;6.30;99.90;;;;;;5074075;28;20278;-78
2021/04/02 03:02:26;;;;;;;24.13;10.93;;;6.20;99.90;;;;;;5093044;28;20209;-78
2021/04/02 03:04:53;;;;;;;24.43;11.00;;;6.30;99.90;;;;;;5091369;28;20180;-79
2021/04/02 03:07:22;;;;;;;23.23;10.33;;;6.30;99.90;;;;;;5085374;28;20177;-78
2021/04/02 03:09:49;;;;;;;28.67;11.70;;;6.30;99.90;;;;;;5092896;28;20202;-79
2021/04/02 03:12:18;;;;;;;28.97;12.03;;;6.30;99.90;;;;;;5090560;28;20650;-78
2021/04/02 03:14:48;;;;;;;22.07;11.13;;;6.30;99.90;;;;;;5092907;28;20183;-78
2021/04/02 03:17:13;;;;;;;23.57;11.47;;;6.30;99.90;;;;;;5090580;28;20194;-78
2021/04/02 03:19:42;;;;;;;25.83;11.40;;;6.20;99.90;;;;;;5091105;28;20560;-78
2021/04/02 03:22:15;;;;;;;24.47;12.27;;;6.30;99.90;;;;;;5092546;28;20194;-79
2021/04/02 03:24:50;;;;;;;29.37;12.60;;;6.40;99.90;;;;;;5085188;28;20174;-79
2021/04/02 03:27:23;;;;;;;27.53;12.17;;;6.40;99.90;;;;;;5093272;28;20179;-79
2021/04/02 03:29:49;;;;;;;27.00;12.33;;;6.50;99.90;;;;;;5088777;28;20293;-79
2021/04/02 03:32:17;;;;;;;25.70;12.60;;;6.40;99.90;;;;;;5090089;28;20189;-78
2021/04/02 03:34:45;;;;;;;23.83;12.20;;;6.40;99.90;;;;;;5087483;28;20273;-79
2021/04/02 03:37:17;;;;;;;24.63;12.50;;;6.40;99.90;;;;;;5085901;28;20191;-78
2021/04/02 03:39:53;;;;;;;25.53;13.10;;;6.50;99.90;;;;;;5093600;28;20206;-78
2021/04/02 03:42:23;;;;;;;25.07;12.63;;;6.50;99.90;;;;;;5090400;28;20211;-78
2021/04/02 03:44:50;;;;;;;27.73;12.20;;;6.50;99.90;;;;;;5095656;28;20181;-78
2021/04/02 03:47:19;;;;;;;26.70;12.40;;;6.60;99.90;;;;;;5097547;28;20178;-78
2021/04/02 03:49:51;;;;;;;26.67;12.20;;;6.60;99.90;;;;;;5083637;28;20183;-78
2021/04/02 03:52:25;;;;;;;23.60;11.60;;;6.60;99.90;;;;;;5097962;28;20199;-79
2021/04/02 03:54:52;;;;;;;21.43;10.97;;;6.60;99.90;;;;;;5092915;28;20214;-78
2021/04/02 03:57:24;;;;;;;22.13;10.87;;;6.60;99.90;;;;;;5076099;28;20189;-78
2021/04/02 03:59:52;;;;;;;21.43;11.43;;;6.40;99.90;;;;;;5094721;28;20187;-78
2021/04/02 04:02:19;;;;;;;23.57;12.13;;;6.40;99.90;;;;;;5094258;28;20206;-78
2021/04/02 04:04:49;;;;;;;23.93;10.97;;;6.30;99.90;;;;;;5090839;28;20206;-78
2021/04/02 04:07:17;;;;;;;27.37;11.97;;;6.20;99.90;;;;;;5089312;28;20175;-78
2021/04/02 04:09:47;;;;;;;21.60;12.10;;;6.30;99.90;;;;;;5092311;28;20176;-79
2021/04/02 04:12:19;;;;;;;22.43;11.97;;;6.20;99.90;;;;;;5090649;28;20178;-78
2021/04/02 04:14:55;;;;;;;22.67;11.53;;;6.20;99.90;;;;;;5087403;28;20178;-79
2021/04/02 04:17:27;;;;;;;24.87;12.27;;;6.30;99.90;;;;;;5094787;28;20184;-78
2021/04/02 04:20:03;;;;;;;26.07;11.43;;;6.30;99.90;;;;;;5092449;28;20248;-79
2021/04/02 04:22:35;;;;;;;23.63;11.23;;;6.50;99.90;;;;;;5079061;28;20576;-79
2021/04/02 04:25:02;;;;;;;21.73;11.07;;;6.60;99.90;;;;;;5095396;28;20203;-79
2021/04/02 04:27:31;;;;;;;22.80;11.13;;;6.60;99.90;;;;;;5088155;28;20659;-78
2021/04/02 04:29:58;;;;;;;22.07;10.97;;;6.50;99.90;;;;;;5094442;28;20254;-79
2021/04/02 04:32:25;;;;;;;20.57;10.70;;;6.50;99.90;;;;;;5089027;28;20203;-78
2021/04/02 04:34:50;;;;;;;21.70;11.30;;;6.50;99.90;;;;;;5092410;28;20192;-78
2021/04/02 04:37:18;;;;;;;23.03;11.17;;;6.50;99.90;;;;;;5090743;28;20185;-78
2021/04/02 04:39:47;;;;;;;24.13;11.33;;;6.40;99.90;;;;;;5095302;28;20179;-79
2021/04/02 04:42:15;;;;;;;25.97;10.60;;;6.40;99.90;;;;;;5090271;28;20228;-79
2021/04/02 04:44:44;;;;;;;23.50;10.80;;;6.30;99.90;;;;;;5092931;28;20590;-79
2021/04/02 04:47:10;;;;;;;23.53;9.70;;;6.20;99.90;;;;;;5090596;28;20180;-79
2021/04/02 04:49:36;;;;;;;21.67;9.40;;;6.20;99.90;;;;;;5088871;28;20292;-79
2021/04/02 04:52:04;;;;;;;22.97;8.53;;;6.00;99.90;;;;;;5095511;28;20271;-79
2021/04/02 04:54:33;;;;;;;18.83;8.60;;;5.90;99.90;;;;;;5088810;28;20208;-78
2021/04/02 04:56:59;;;;;;;23.47;9.57;;;5.90;99.90;;;;;;5094888;28;20179;-78
2021/04/02 04:59:27;;;;;;;25.53;8.90;;;5.90;99.90;;;;;;5086670;28;20229;-78
2021/04/02 05:01:55;;;;;;;23.23;8.93;;;5.90;99.90;;;;;;5074795;28;20200;-79
2021/04/02 05:04:24;;;;;;;19.77;9.10;;;5.70;99.90;;;;;;5092809;28;20217;-78
2021/04/02 05:06:55;;;;;;;20.03;8.73;;;5.60;99.90;;;;;;5088708;28;20586;-79
2021/04/02 05:09:26;;;;;;;21.27;9.37;;;5.50;99.90;;;;;;5094886;28;20194;-78
2021/04/02 05:11:52;;;;;;;23.17;9.30;;;5.60;99.90;;;;;;5085937;28;21635;-78
2021/04/02 05:14:20;;;;;;;19.23;9.50;;;5.60;99.90;;;;;;5089449;28;20181;-78
2021/04/02 05:16:47;;;;;;;27.10;10.03;;;5.70;99.90;;;;;;5093546;28;20186;-79
2021/04/02 05:19:17;;;;;;;21.63;9.23;;;5.70;99.90;;;;;;5089998;28;20650;-79
2021/04/02 05:21:43;;;;;;;20.00;8.83;;;5.70;99.90;;;;;;5093945;28;20707;-78
2021/04/02 05:24:10;;;;;;;23.33;9.13;;;5.60;99.90;;;;;;5092234;28;20646;-78
2021/04/02 05:26:36;;;;;;;18.63;8.87;;;5.70;99.90;;;;;;5090204;28;20183;-78
2021/04/02 05:29:02;;;;;;;22.17;9.20;;;5.70;99.90;;;;;;5087962;28;20634;-78
2021/04/02 05:31:29;;;;;;;18.70;8.70;;;5.60;99.90;;;;;;5085175;28;20179;-79
2021/04/02 05:33:55;;;;;;;22.70;8.73;;;5.60;99.90;;;;;;5091642;28;20201;-79
2021/04/02 05:36:20;;;;;;;24.10;10.23;;;5.70;99.90;;;;;;5092179;28;20237;-79
2021/04/02 05:38:46;;;;;;;19.53;8.93;;;5.80;99.90;;;;;;5089044;28;20187;-79
2021/04/02 05:41:22;;;;;;;25.87;8.97;;;5.80;99.90;;;;;;5092379;28;20234;-79
2021/04/02 05:44:02;;;;;;;22.00;8.37;;;5.70;99.90;;;;;;5087617;28;20549;-78
2021/04/02 05:46:29;;;;;;;19.37;7.53;;;5.80;99.90;;;;;;5091607;28;20193;-79
2021/04/02 05:49:05;;;;;;;14.10;7.03;;;5.80;99.90;;;;;;5095001;28;20211;-79
2021/04/02 05:51:32;;;;;;;15.70;6.60;;;6.10;99.90;;;;;;5092480;28;20237;-79
2021/04/02 05:53:59;;;;;;;16.70;5.33;;;6.50;99.90;;;;;;5091581;28;20181;-79
2021/04/02 05:56:26;;;;;;;14.87;5.27;;;6.70;99.90;;;;;;5089075;28;20179;-78
2021/04/02 05:58:52;;;;;;;12.60;5.13;;;6.90;99.90;;;;;;5089438;28;20189;-79
2021/04/02 06:01:19;;;;;;;11.67;4.20;;;7.20;99.90;;;;;;5090849;28;20204;-79
2021/04/02 06:03:45;;;;;;;14.43;4.73;;;7.30;99.90;;;;;;5088673;28;20187;-79
2021/04/02 06:06:13;;;;;;;14.93;4.07;;;7.50;99.90;;;;;;5090496;28;20231;-79
2021/04/02 06:08:44;;;;;;;17.60;4.77;;;7.90;99.90;;;;;;5068409;28;20178;-78
2021/04/02 06:11:10;;;;;;;15.90;3.80;;;8.10;99.90;;;;;;5088030;28;20242;-79
2021/04/02 06:13:36;;;;;;;11.00;4.30;;;8.30;99.90;;;;;;5089096;28;20193;-79
2021/04/02 06:16:02;;;;;;;14.30;3.90;;;8.40;99.90;;;;;;5087076;28;20196;-79
2021/04/02 06:18:28;;;;;;;10.40;3.93;;;8.30;99.90;;;;;;5095452;28;20273;-78
2021/04/02 06:20:55;;;;;;;9.30;3.53;;;8.10;99.90;;;;;;5091002;28;20246;-78
2021/04/02 06:23:32;;;;;;;11.87;3.97;;;7.70;99.90;;;;;;5088566;28;20189;-77
2021/04/02 06:26:02;;;;;;;15.43;4.20;;;7.20;99.90;;;;;;5091037;28;20276;-78
2021/04/02 06:28:36;;;;;;;17.87;4.57;;;7.30;99.90;;;;;;5091014;28;20198;-78
2021/04/02 06:31:01;;;;;;;12.63;4.40;;;7.10;99.90;;;;;;5090891;28;20198;-77
2021/04/02 06:33:39;;;;;;;12.50;5.30;;;7.00;99.90;;;;;;5090905;28;20183;-77
2021/04/02 06:36:13;;;;;;;12.47;5.10;;;6.80;99.90;;;;;;5093838;28;20190;-77
2021/04/02 06:38:56;;;;;;;18.53;5.83;;;6.80;99.90;;;;;;5090157;28;20635;-78
2021/04/02 06:41:24;;;;;;;12.27;4.90;;;6.80;99.90;;;;;;5089172;28;20230;-78
2021/04/02 06:43:51;;;;;;;14.30;5.30;;;6.90;99.90;;;;;;5091283;28;20179;-78
2021/04/02 06:46:23;;;;;;;13.47;5.43;;;6.90;99.90;;;;;;5093655;28;20179;-78
2021/04/02 06:49:07;;;;;;;13.53;5.13;;;7.00;99.90;;;;;;5089706;28;20167;-78
2021/04/02 06:51:36;;;;;;;14.77;5.53;;;6.90;99.90;;;;;;5086429;28;20191;-79
2021/04/02 06:54:04;;;;;;;14.27;5.30;;;6.50;99.90;;;;;;5093885;28;20193;-78
2021/04/02 06:56:31;;;;;;;15.13;6.17;;;6.40;99.90;;;;;;5086811;28;20176;-78
2021/04/02 06:58:59;;;;;;;16.87;5.93;;;6.50;99.90;;;;;;5093659;28;20228;-77
2021/04/02 07:01:28;;;;;;;14.20;6.27;;;6.70;99.90;;;;;;5086641;28;20214;-78
2021/04/02 07:03:54;;;;;;;19.70;6.40;;;6.80;99.90;;;;;;5090342;28;20277;-78
2021/04/02 07:06:21;;;;;;;16.90;6.47;;;6.90;99.90;;;;;;5092784;28;20239;-78
2021/04/02 07:08:47;;;;;;;18.33;7.50;;;6.90;99.90;;;;;;5091703;28;20650;-78
2021/04/02 07:11:14;;;;;;;17.67;6.60;;;6.70;99.90;;;;;;5090837;28;20550;-77
2021/04/02 07:13:54;;;;;;;13.20;6.17;;;6.70;99.90;;;;;;5087791;28;20874;-77
2021/04/02 07:16:22;;;;;;;15.27;6.17;;;6.50;99.90;;;;;;5093026;28;20174;-77
2021/04/02 07:18:48;;;;;;;15.83;6.10;;;6.40;99.90;;;;;;5099522;28;20590;-77
2021/04/02 07:21:16;;;;;;;14.13;6.30;;;6.50;99.90;;;;;;5091764;28;20241;-78
2021/04/02 07:23:42;;;;;;;16.83;6.87;;;6.50;99.90;;;;;;5093574;28;20189;-78
2021/04/02 07:26:12;;;;;;;15.63;7.30;;;6.50;99.90;;;;;;5094391;28;20742;-78
2021/04/02 07:28:41;;;;;;;16.00;6.37;;;6.60;99.90;;;;;;5093179;28;20186;-77
2021/04/02 07:31:08;;;;;;;16.93;6.40;;;6.70;99.90;;;;;;5095017;28;20179;-77
2021/04/02 07:33:36;;;;;;;17.00;6.97;;;6.80;99.90;;;;;;5090088;28;20186;-77
2021/04/02 07:36:03;;;;;;;13.63;5.50;;;7.00;99.90;;;;;;5098198;28;20250;-77
2021/04/02 07:38:33;;;;;;;16.90;5.83;;;7.20;99.90;;;;;;5095726;28;20170;-77
2021/04/02 07:41:07;;;;;;;14.93;5.77;;;7.30;99.90;;;;;;5091529;28;20192;-77
2021/04/02 07:43:33;;;;;;;15.03;5.50;;;7.60;99.90;;;;;;5080941;28;20751;-77
2021/04/02 07:46:01;;;;;;;16.67;5.70;;;7.60;99.90;;;;;;5087491;28;20182;-78
2021/04/02 07:48:27;;;;;;;12.90;5.53;;;7.90;99.90;;;;;;5077053;28;20184;-78
2021/04/02 07:50:56;;;;;;;16.37;5.47;;;8.10;99.90;;;;;;5081419;28;20212;-78
2021/04/02 07:53:25;;;;;;;12.93;5.07;;;8.40;99.90;;;;;;5077589;28;20199;-79
2021/04/02 07:56:07;;;;;;;15.13;4.97;;;8.60;99.90;;;;;;5095637;28;20228;-78
2021/04/02 07:58:48;;;;;;;11.90;5.03;;;8.40;99.90;;;;;;5089511;28;20185;-78
2021/04/02 08:01:20;;;;;;;12.40;4.80;;;8.60;99.90;;;;;;5090883;28;20196;-77
2021/04/02 08:03:46;;;;;;;14.20;4.70;;;8.70;99.90;;;;;;5089258;28;20235;-78
2021/04/02 08:06:29;;;;;;;13.47;4.93;;;8.40;99.90;;;;;;5090217;28;20212;-78
2021/04/02 08:08:56;;;;;;;12.40;5.00;;;8.50;99.90;;;;;;5093448;28;20183;-78
2021/04/02 08:11:44;;;;;;;14.33;4.60;;;9.20;99.90;;;;;;5084653;28;20204;-77
2021/04/02 08:14:13;;;;;;;15.33;4.40;;;9.90;99.90;;;;;;5094889;28;20209;-77
2021/04/02 08:16:42;;;;;;;13.13;4.23;;;11.10;99.90;;;;;;5093595;28;20224;-77
2021/04/02 08:19:12;;;;;;;13.37;3.97;;;12.00;99.90;;;;;;5091526;28;20203;-77
2021/04/02 08:21:59;;;;;;;10.87;3.80;;;11.20;99.90;;;;;;5090539;28;20215;-78
2021/04/02 08:24:28;;;;;;;11.77;4.10;;;11.60;99.90;;;;;;5109674;27;20196;-79
2021/04/02 08:26:55;;;;;;;12.40;4.30;;;11.40;99.90;;;;;;5092663;28;20646;-80
2021/04/02 08:29:22;;;;;;;12.63;3.50;;;11.70;99.90;;;;;;5091211;28;20184;-81
2021/04/02 08:31:54;;;;;;;11.40;3.80;;;11.40;99.90;;;;;;5073369;28;20192;-79
2021/04/02 08:34:24;;;;;;;10.80;3.77;;;12.20;99.90;;;;;;5090068;28;20189;-79
2021/04/02 08:36:51;;;;;;;12.30;3.70;;;13.20;99.90;;;;;;5094819;28;20635;-79
2021/04/02 08:39:21;;;;;;;11.23;3.40;;;13.20;99.90;;;;;;5090703;28;20186;-79
2021/04/02 08:41:47;;;;;;;10.03;3.50;;;13.00;99.90;;;;;;5090403;28;20655;-79
2021/04/02 08:44:14;;;;;;;10.57;3.60;;;13.10;99.90;;;;;;5096010;28;20189;-79
2021/04/02 08:46:44;;;;;;;13.13;3.60;;;13.70;99.90;;;;;;5091384;28;20274;-79
2021/04/02 08:49:15;;;;;;;10.33;3.20;;;13.90;99.90;;;;;;5098782;28;20186;-80
2021/04/02 08:51:47;;;;;;;11.20;3.50;;;13.90;99.90;;;;;;5093941;28;20186;-78
2021/04/02 08:54:17;;;;;;;12.77;3.63;;;13.00;99.90;;;;;;5088336;28;20194;-77
2021/04/02 08:56:42;;;;;;;11.20;3.30;;;12.80;99.90;;;;;;5107814;27;20190;-77
2021/04/02 08:59:09;;;;;;;12.77;3.83;;;14.10;99.90;;;;;;5083434;28;20187;-77
2021/04/02 09:01:41;;;;;;;12.67;3.70;;;14.60;99.90;;;;;;5089398;28;20234;-77
2021/04/02 09:04:07;;;;;;;9.90;2.67;;;15.50;99.90;;;;;;5073759;28;20299;-78
2021/04/02 09:06:34;;;;;;;12.10;2.73;;;16.50;99.90;;;;;;5089364;28;20215;-78
2021/04/02 09:09:02;;;;;;;9.10;3.00;;;16.60;99.90;;;;;;5089404;28;20634;-77
2021/04/02 09:11:28;;;;;;;12.93;3.10;;;16.80;99.90;;;;;;5089074;28;20552;-77
2021/04/02 09:13:54;;;;;;;9.40;2.70;;;15.70;99.90;;;;;;5089128;28;20199;-77
2021/04/02 09:16:20;;;;;;;12.20;2.97;;;15.10;99.90;;;;;;5089765;28;20192;-77
2021/04/02 09:18:53;;;;;;;8.43;2.90;;;14.40;99.90;;;;;;5089666;28;20187;-77
2021/04/02 09:21:20;;;;;;;10.20;3.13;;;14.70;99.90;;;;;;5090185;28;20186;-77
2021/04/02 09:23:55;;;;;;;9.10;3.20;;;15.70;99.90;;;;;;5091148;28;20647;-77
2021/04/02 09:26:22;;;;;;;13.13;3.70;;;15.80;99.90;;;;;;5090059;28;20839;-77
2021/04/02 09:28:49;;;;;;;14.17;3.60;;;14.80;99.90;;;;;;5089048;28;20284;-77
2021/04/02 09:31:23;;;;;;;10.73;3.50;;;14.10;99.90;;;;;;5089592;28;20274;-77
2021/04/02 09:33:54;;;;;;;10.07;3.43;;;13.70;99.90;;;;;;5106840;27;20643;-76
2021/04/02 09:36:21;;;;;;;12.63;3.50;;;12.90;99.90;;;;;;5090479;28;20262;-77
2021/04/02 09:38:48;;;;;;;11.53;3.77;;;12.30;99.90;;;;;;5087335;28;20183;-77
2021/04/02 09:41:20;;;;;;;11.33;3.97;;;11.80;99.90;;;;;;5091642;28;20214;-77
2021/04/02 09:43:53;;;;;;;13.07;3.87;;;11.80;99.90;;;;;;5086985;28;20185;-77
2021/04/02 09:46:28;;;;;;;11.00;2.93;;;11.60;99.90;;;;;;5087768;28;20168;-77
2021/04/02 09:49:06;;;;;;;15.27;3.10;;;11.80;99.90;;;;;;5090904;28;20190;-77
2021/04/02 09:51:33;;;;;;;12.37;3.60;;;11.70;99.90;;;;;;5088744;28;20188;-77
2021/04/02 09:53:59;;;;;;;10.80;3.80;;;11.40;99.90;;;;;;5084635;28;20212;-78
2021/04/02 09:56:25;;;;;;;12.23;3.83;;;11.30;99.90;;;;;;5088829;28;20191;-77
2021/04/02 09:58:51;;;;;;;13.47;3.60;;;11.10;99.90;;;;;;5081662;28;20184;-77
2021/04/02 10:01:16;;;;;;;10.40;3.23;;;11.00;99.90;;;;;;5089562;28;20191;-77
2021/04/02 10:03:42;;;;;;;9.00;2.77;;;11.20;99.90;;;;;;5084524;28;20248;-76
2021/04/02 10:06:08;;;;;;;11.67;2.77;;;12.50;99.90;;;;;;5087946;28;20263;-77
2021/04/02 10:08:33;;;;;;;9.73;3.27;;;13.10;99.90;;;;;;5088490;28;20183;-77
2021/04/02 10:10:59;;;;;;;10.87;3.00;;;13.70;99.90;;;;;;5087545;28;20202;-77
2021/04/02 10:13:25;;;;;;;12.17;3.30;;;14.60;99.90;;;;;;5105207;28;20203;-78
2021/04/02 10:15:51;;;;;;;10.33;3.23;;;15.90;99.90;;;;;;5089689;28;20200;-77
2021/04/02 10:18:17;;;;;;;8.87;2.90;;;16.20;99.90;;;;;;5084166;28;20247;-77
2021/04/02 10:20:43;;;;;;;9.97;3.10;;;15.20;99.90;;;;;;5067125;28;20233;-76
2021/04/02 10:23:09;;;;;;;10.80;2.73;;;14.90;99.90;;;;;;5085945;28;20288;-77
2021/04/02 10:25:35;;;;;;;9.60;2.73;;;16.50;99.90;;;;;;5085759;28;20243;-78
2021/04/02 10:28:01;;;;;;;10.83;2.60;;;17.10;99.80;;;;;;5084234;28;20185;-76
2021/04/02 10:30:27;;;;;;;7.47;2.63;;;19.20;94.10;;;;;;5073354;28;20625;-77
2021/04/02 10:32:53;;;;;;;7.43;2.83;;;19.10;92.10;;;;;;5087991;28;20329;-77
2021/04/02 10:35:19;;;;;;;11.13;2.73;;;19.50;89.90;;;;;;5087340;28;20696;-77
2021/04/02 10:37:45;;;;;;;8.13;2.43;;;19.00;90.90;;;;;;5085703;28;20191;-77
2021/04/02 10:40:11;;;;;;;11.57;2.80;;;17.40;90.20;;;;;;5084443;28;20186;-76
2021/04/02 10:42:37;;;;;;;9.20;2.97;;;16.50;92.50;;;;;;5086261;28;20263;-77
2021/04/02 10:45:04;;;;;;;12.13;2.90;;;15.40;93.90;;;;;;5085337;28;20655;-76
2021/04/02 10:47:29;;;;;;;9.93;2.90;;;14.50;96.20;;;;;;5089007;28;20177;-75
2021/04/02 10:49:55;;;;;;;12.33;2.93;;;14.30;96.20;;;;;;5092948;28;20558;-77
2021/04/02 10:52:21;;;;;;;11.33;2.63;;;13.70;97.40;;;;;;5091423;28;20193;-76
2021/04/02 10:54:47;;;;;;;7.00;2.50;;;13.60;97.80;;;;;;5093764;28;20178;-76
2021/04/02 10:57:14;;;;;;;8.33;2.50;;;13.30;98.50;;;;;;5088959;28;20197;-76
2021/04/02 10:59:40;;;;;;;9.77;2.60;;;13.10;99.20;;;;;;5091984;28;20202;-75
2021/04/02 11:02:06;;;;;;;10.70;3.13;;;12.80;99.90;;;;;;5090244;28;20205;-76
2021/04/02 11:04:32;;;;;;;9.67;2.80;;;12.90;99.90;;;;;;5088384;28;20282;-76
2021/04/02 11:06:57;;;;;;;8.43;2.80;;;13.00;99.90;;;;;;5090967;28;20301;-76
2021/04/02 11:09:23;;;;;;;9.80;2.40;;;13.00;99.90;;;;;;5086546;28;20186;-76
2021/04/02 11:11:49;;;;;;;8.90;2.97;;;13.40;99.90;;;;;;5091184;28;20213;-76
2021/04/02 11:14:14;;;;;;;7.40;2.50;;;14.60;99.00;;;;;;5092152;28;20612;-76
2021/04/02 11:16:40;;;;;;;7.00;2.07;;;15.20;97.70;;;;;;5087243;28;20200;-76
2021/04/02 11:19:05;;;;;;;9.73;2.50;;;15.20;96.00;;;;;;5091290;28;20197;-76
2021/04/02 11:21:31;;;;;;;7.17;2.40;;;15.10;96.10;;;;;;5087278;28;20236;-76
2021/04/02 11:23:57;;;;;;;8.33;2.30;;;14.30;97.00;;;;;;5090781;28;20178;-76
2021/04/02 11:26:24;;;;;;;10.73;2.60;;;13.70;97.10;;;;;;5085302;28;20179;-76
2021/04/02 11:28:50;;;;;;;7.93;2.40;;;14.00;98.60;;;;;;5089465;28;20174;-77
2021/04/02 11:31:18;;;;;;;7.97;2.20;;;14.50;97.30;;;;;;5090795;28;20908;-77
2021/04/02 11:33:43;;;;;;;8.33;2.50;;;14.90;98.20;;;;;;5091574;28;20187;-76
2021/04/02 11:36:09;;;;;;;10.33;2.70;;;15.00;98.40;;;;;;5089019;28;21219;-77
2021/04/02 11:38:36;;;;;;;9.83;2.40;;;14.40;97.90;;;;;;5089749;28;20175;-76
2021/04/02 11:41:02;;;;;;;9.40;2.10;;;14.00;96.30;;;;;;5090240;28;20646;-77
2021/04/02 11:43:28;;;;;;;10.80;2.87;;;13.50;96.10;;;;;;5088660;28;20201;-77
2021/04/02 11:45:53;;;;;;;9.47;2.50;;;13.40;97.00;;;;;;5104682;28;20189;-77
2021/04/02 11:48:19;;;;;;;10.47;2.73;;;13.60;96.80;;;;;;5091406;28;20274;-77
2021/04/02 11:50:45;;;;;;;7.30;2.33;;;13.90;96.90;;;;;;5086275;28;20182;-76
2021/04/02 11:53:11;;;;;;;8.10;2.20;;;14.40;98.40;;;;;;5087158;28;20220;-76
2021/04/02 11:55:36;;;;;;;11.13;2.80;;;14.90;96.00;;;;;;5092610;28;20179;-76
2021/04/02 11:58:03;;;;;;;11.83;2.20;;;14.60;94.20;;;;;;5090324;28;20182;-76
2021/04/02 12:00:29;;;;;;;6.10;2.00;;;14.60;94.70;;;;;;5085517;28;20209;-77
2021/04/02 12:02:55;;;;;;;10.97;2.53;;;15.10;93.30;;;;;;5073295;28;20686;-76
2021/04/02 12:05:24;;;;;;;10.00;2.57;;;15.50;93.30;;;;;;5087316;28;20212;-76
2021/04/02 12:07:51;;;;;;;7.23;2.23;;;15.30;93.80;;;;;;5091154;28;20168;-76
2021/04/02 12:10:17;;;;;;;10.87;2.93;;;15.00;94.20;;;;;;5092384;28;20208;-76
2021/04/02 12:12:42;;;;;;;11.80;2.90;;;15.30;95.60;;;;;;5090111;28;20194;-76
2021/04/02 12:15:09;;;;;;;10.77;3.27;;;14.70;94.40;;;;;;5091307;28;20575;-76
2021/04/02 12:17:36;;;;;;;12.60;3.10;;;14.50;96.00;;;;;;5091575;28;20662;-76
2021/04/02 12:20:04;;;;;;;13.70;3.40;;;14.70;95.00;;;;;;5088634;28;20190;-76
2021/04/02 12:22:30;;;;;;;11.67;3.30;;;14.60;95.20;;;;;;5086832;28;20283;-75
2021/04/02 12:24:56;;;;;;;10.40;3.97;;;15.10;94.30;;;;;;5090706;28;20276;-76
2021/04/02 12:27:21;;;;;;;11.03;3.40;;;15.50;95.50;;;;;;5091533;28;20180;-76
2021/04/02 12:29:48;;;;;;;15.87;4.27;;;15.60;94.30;;;;;;5090550;28;20318;-76
2021/04/02 12:32:14;;;;;;;12.33;3.77;;;15.70;95.70;;;;;;5071315;28;20556;-76
2021/04/02 12:34:40;;;;;;;14.23;4.30;;;16.10;95.30;;;;;;5086548;28;20183;-76
2021/04/02 12:37:05;;;;;;;22.03;5.43;;;16.40;95.20;;;;;;5086087;28;20643;-76
2021/04/02 12:39:31;;;;;;;20.27;6.00;;;16.70;94.70;;;;;;5090389;28;20563;-76
2021/04/02 12:41:57;;;;;;;14.57;5.20;;;15.90;94.50;;;;;;5086263;28;20759;-76
2021/04/02 12:44:22;;;;;;;13.87;5.00;;;15.20;95.60;;;;;;5090436;28;20624;-76
2021/04/02 12:46:48;;;;;;;21.47;6.00;;;15.40;95.70;;;;;;5090625;28;20248;-76
2021/04/02 12:49:14;;;;;;;18.90;6.30;;;15.80;98.10;;;;;;5087591;28;20181;-77